createdAt,value
2017-09-16T00:00:01.000Z,17.2
2017-09-16T00:10:02.000Z,17.2
2017-09-16T00:20:01.000Z,17.2
2017-09-16T00:30:01.000Z,17.2
2017-09-16T00:40:02.000Z,17.2
2017-09-16T00:50:01.000Z,17.2
2017-09-16T01:00:01.000Z,17.2
2017-09-16T01:10:01.000Z,17.2
2017-09-16T01:20:01.000Z,17.2
2017-09-16T01:30:01.000Z,17.1
2017-09-16T01:40:01.000Z,17
2017-09-16T01:50:01.000Z,17
2017-09-16T02:00:01.000Z,17
2017-09-16T02:10:01.000Z,16.9
2017-09-16T02:20:01.000Z,16.9
2017-09-16T02:30:05.000Z,16.9
2017-09-16T02:40:02.000Z,16.9
2017-09-16T02:50:01.000Z,16.8
2017-09-16T03:00:01.000Z,16.8
2017-09-16T03:10:02.000Z,16.8
2017-09-16T03:20:01.000Z,16.8
2017-09-16T03:30:01.000Z,16.8
2017-09-16T03:40:02.000Z,16.8
2017-09-16T03:50:01.000Z,16.8
2017-09-16T04:00:01.000Z,16.7
2017-09-16T04:10:01.000Z,16.7
2017-09-16T04:20:02.000Z,16.6
2017-09-16T04:30:01.000Z,16.6
2017-09-16T04:40:01.000Z,16.6
2017-09-16T04:50:01.000Z,16.6
2017-09-16T05:00:01.000Z,16.6
2017-09-16T05:10:05.000Z,16.6
2017-09-16T05:20:01.000Z,16.6
2017-09-16T05:30:01.000Z,16.6
2017-09-16T05:40:01.000Z,16.6
2017-09-16T05:50:01.000Z,16.6
2017-09-16T06:00:01.000Z,16.6
2017-09-16T06:10:01.000Z,16.6
2017-09-16T06:20:02.000Z,16.6
2017-09-16T06:30:01.000Z,16.6
2017-09-16T06:40:01.000Z,16.6
2017-09-16T06:50:02.000Z,16.6
2017-09-16T07:00:01.000Z,16.6
2017-09-16T07:10:01.000Z,16.7
2017-09-16T07:20:02.000Z,16.8
2017-09-16T07:30:01.000Z,16.8
2017-09-16T07:40:01.000Z,16.9
2017-09-16T07:50:05.000Z,16.9
2017-09-16T08:00:01.000Z,17
2017-09-16T08:10:01.000Z,17.2
2017-09-16T08:20:02.000Z,17.2
2017-09-16T08:30:01.000Z,17.2
2017-09-16T08:40:01.000Z,17.2
2017-09-16T08:50:02.000Z,17.2
2017-09-16T09:00:01.000Z,17.2
2017-09-16T09:10:01.000Z,17.2
2017-09-16T09:20:02.000Z,17.2
2017-09-16T09:30:01.000Z,17.2
2017-09-16T09:40:01.000Z,17.2
2017-09-16T09:50:02.000Z,17.2
2017-09-16T10:00:01.000Z,17.2
2017-09-16T10:10:01.000Z,17.2
2017-09-16T10:20:01.000Z,17.2
2017-09-16T10:30:05.000Z,17.2
2017-09-16T10:40:01.000Z,17.2
2017-09-16T10:50:02.000Z,17.2
2017-09-16T11:00:01.000Z,17.2
2017-09-16T11:10:01.000Z,17.2
2017-09-16T11:20:02.000Z,17.5
2017-09-16T11:30:01.000Z,17.3
2017-09-16T11:40:01.000Z,17.2
2017-09-16T11:50:01.000Z,17.2
2017-09-16T12:00:01.000Z,17.2
2017-09-16T12:10:01.000Z,17.2
2017-09-16T12:20:02.000Z,17.2
2017-09-16T12:30:01.000Z,17.2
2017-09-16T12:40:01.000Z,17.2
2017-09-16T12:50:02.000Z,17.2
2017-09-16T13:00:01.000Z,17.2
2017-09-16T13:10:05.000Z,17.2
2017-09-16T13:20:02.000Z,17.2
2017-09-16T13:30:01.000Z,17.6
2017-09-16T13:40:01.000Z,17.6
2017-09-16T13:50:02.000Z,17.7
2017-09-16T14:00:01.000Z,17.7
2017-09-16T14:10:01.000Z,17.8
2017-09-16T14:20:02.000Z,17.9
2017-09-16T14:30:01.000Z,17.9
2017-09-16T14:40:01.000Z,17.9
2017-09-16T14:50:02.000Z,17.9
2017-09-16T15:00:01.000Z,17.9
2017-09-16T15:10:01.000Z,17.9
2017-09-16T15:20:01.000Z,17.9
2017-09-16T15:30:01.000Z,18.1
2017-09-16T15:40:01.000Z,18.1
2017-09-16T15:50:05.000Z,17.9
2017-09-16T16:00:01.000Z,17.9
2017-09-16T16:10:01.000Z,17.9
2017-09-16T16:20:02.000Z,17.9
2017-09-16T16:30:01.000Z,17.9
2017-09-16T16:40:01.000Z,17.9
2017-09-16T16:50:02.000Z,17.9
2017-09-16T17:00:01.000Z,17.9
2017-09-16T17:10:01.000Z,18.1
2017-09-16T17:20:01.000Z,18.2
2017-09-16T17:30:01.000Z,18.1
2017-09-16T17:40:01.000Z,18.2
2017-09-16T17:50:01.000Z,18.2
2017-09-16T18:00:01.000Z,18.1
2017-09-16T18:10:02.000Z,18.1
2017-09-16T18:20:01.000Z,17.9
2017-09-16T18:30:05.000Z,17.9
2017-09-16T18:40:01.000Z,17.9
2017-09-16T18:50:01.000Z,17.9
2017-09-16T19:00:01.000Z,17.9
2017-09-16T19:10:02.000Z,17.8
2017-09-16T19:20:01.000Z,17.7
2017-09-16T19:30:01.000Z,17.7
2017-09-16T19:40:01.000Z,17.5
2017-09-16T19:50:01.000Z,17.2
2017-09-16T20:00:01.000Z,17.2
2017-09-16T20:10:01.000Z,17.2
2017-09-16T20:20:02.000Z,17.2
2017-09-16T20:30:01.000Z,17.2
2017-09-16T20:40:01.000Z,17.2
2017-09-16T20:50:02.000Z,17.2
2017-09-16T21:00:01.000Z,17.2
2017-09-16T21:10:05.000Z,17.2
2017-09-16T21:20:02.000Z,17.2
2017-09-16T21:30:01.000Z,17.2
2017-09-16T21:40:01.000Z,17.2
2017-09-16T21:50:01.000Z,17.2
2017-09-16T22:00:02.000Z,17.2
2017-09-16T22:10:01.000Z,17.2
2017-09-16T22:20:01.000Z,17.2
2017-09-16T22:30:01.000Z,17.2
2017-09-16T22:40:02.000Z,17.2
2017-09-16T22:50:01.000Z,17.2
2017-09-16T23:00:01.000Z,17.2
2017-09-16T23:10:02.000Z,17.2
2017-09-16T23:20:01.000Z,17.2
2017-09-16T23:30:01.000Z,17.2
2017-09-16T23:40:02.000Z,17.2
2017-09-16T23:50:05.000Z,17.2
